createdAt,value
2022-12-23T00:00:30.784Z,17.20
2022-12-23T00:03:19.061Z,18.00
2022-12-23T00:05:47.384Z,18.40
2022-12-23T00:08:15.895Z,18.00
2022-12-23T00:10:44.480Z,17.60
2022-12-23T00:13:31.481Z,16.80
2022-12-23T00:16:13.331Z,16.90
2022-12-23T00:18:43.134Z,17.80
2022-12-23T00:21:14.146Z,16.30
2022-12-23T00:23:45.251Z,16.10
2022-12-23T00:26:22.764Z,16.60
2022-12-23T00:28:51.417Z,15.40
2022-12-23T00:31:21.296Z,16.50
2022-12-23T00:33:51.791Z,15.50
2022-12-23T00:36:23.594Z,15.40
2022-12-23T00:39:10.715Z,13.60
2022-12-23T00:41:58.047Z,16.20
2022-12-23T00:44:26.315Z,15.40
2022-12-23T00:46:54.480Z,14.20
2022-12-23T00:49:41.817Z,15.40
2022-12-23T00:52:15.790Z,14.70
2022-12-23T00:54:44.614Z,14.40
2022-12-23T00:57:12.905Z,14.10
2022-12-23T00:59:41.039Z,14.50
2022-12-23T01:02:30.743Z,14.20
2022-12-23T01:05:17.668Z,12.70
2022-12-23T01:07:45.822Z,12.90
2022-12-23T01:10:14.515Z,13.00
2022-12-23T01:12:42.667Z,12.80
2022-12-23T01:15:11.114Z,13.30
2022-12-23T01:17:39.583Z,14.30
2022-12-23T01:20:08.434Z,12.90
2022-12-23T01:22:36.659Z,12.80
2022-12-23T01:25:05.425Z,13.80
2022-12-23T01:27:33.681Z,15.20
2022-12-23T01:30:01.843Z,15.60
2022-12-23T01:32:30.027Z,15.60
2022-12-23T01:34:58.250Z,16.10
2022-12-23T01:37:26.395Z,17.90
2022-12-23T01:39:54.528Z,19.60
2022-12-23T01:42:41.514Z,19.10
2022-12-23T01:45:18.641Z,19.90
2022-12-23T01:47:52.275Z,18.10
2022-12-23T01:50:41.084Z,17.00
2022-12-23T01:53:15.081Z,18.00
2022-12-23T01:55:57.370Z,18.50
2022-12-23T01:58:30.759Z,16.50
2022-12-23T02:03:48.333Z,16.10
2022-12-23T02:06:39.955Z,16.70
2022-12-23T02:09:21.594Z,16.50
2022-12-23T02:12:02.827Z,18.10
2022-12-23T02:15:34.698Z,20.00
2022-12-23T02:18:28.948Z,19.00
2022-12-23T02:21:03.187Z,19.60
2022-12-23T02:23:49.530Z,19.20
2022-12-23T02:26:45.403Z,20.50
2022-12-23T02:29:32.463Z,20.00
2022-12-23T02:32:10.057Z,20.40
2022-12-23T02:34:46.701Z,20.10
2022-12-23T02:37:23.296Z,21.20
2022-12-23T02:40:11.703Z,20.20
2022-12-23T02:42:56.055Z,18.60
2022-12-23T02:45:39.937Z,18.40
2022-12-23T02:48:29.546Z,19.80
2022-12-23T02:51:00.428Z,15.80
2022-12-23T02:53:35.788Z,18.30
2022-12-23T02:56:07.230Z,17.60
2022-12-23T02:58:42.994Z,16.30
2022-12-23T03:01:15.453Z,15.70
2022-12-23T03:03:46.264Z,15.50
2022-12-23T03:06:27.026Z,14.80
2022-12-23T03:08:58.637Z,15.20
2022-12-23T03:11:41.497Z,14.70
2022-12-23T03:14:20.719Z,14.80
2022-12-23T03:17:01.179Z,13.80
2022-12-23T03:19:38.470Z,13.50
2022-12-23T03:22:22.090Z,13.40
2022-12-23T03:25:02.163Z,13.40
2022-12-23T03:27:48.762Z,13.30
2022-12-23T03:30:21.273Z,13.30
2022-12-23T03:32:51.671Z,12.40
2022-12-23T03:35:28.186Z,12.40
2022-12-23T03:37:59.256Z,13.00
2022-12-23T03:40:34.145Z,12.60
2022-12-23T03:43:08.154Z,13.80
2022-12-23T03:45:43.558Z,14.30
2022-12-23T03:48:23.101Z,13.30
2022-12-23T03:50:56.929Z,13.30
2022-12-23T03:53:31.070Z,12.50
2022-12-23T03:56:03.596Z,13.70
2022-12-23T03:58:39.665Z,12.50
2022-12-23T04:01:55.559Z,12.60
2022-12-23T04:04:42.024Z,12.90
2022-12-23T04:07:22.716Z,12.30
2022-12-23T04:09:54.990Z,13.50
2022-12-23T04:12:25.228Z,13.20
2022-12-23T04:14:53.875Z,13.20
2022-12-23T04:17:22.666Z,13.50
2022-12-23T04:19:51.929Z,13.80
2022-12-23T04:22:20.091Z,13.50
2022-12-23T04:24:48.467Z,13.80
2022-12-23T04:27:16.900Z,13.50
2022-12-23T04:29:45.414Z,11.80
2022-12-23T04:32:13.892Z,12.60
2022-12-23T04:34:42.267Z,11.50
2022-12-23T04:37:11.090Z,11.70
2022-12-23T04:39:39.307Z,12.70
2022-12-23T04:42:07.726Z,13.00
2022-12-23T04:44:35.871Z,13.10
2022-12-23T04:47:04.346Z,13.90
2022-12-23T04:49:32.593Z,14.60
2022-12-23T04:52:00.977Z,15.00
2022-12-23T04:54:29.171Z,14.10
2022-12-23T04:56:57.299Z,14.60
2022-12-23T04:59:25.575Z,13.70
2022-12-23T05:01:53.756Z,14.00
2022-12-23T05:04:22.173Z,14.90
2022-12-23T05:06:50.696Z,14.10
2022-12-23T05:09:18.866Z,13.10
2022-12-23T05:11:47.002Z,13.80
2022-12-23T05:14:15.198Z,13.70
2022-12-23T05:16:43.426Z,14.50
2022-12-23T05:19:12.157Z,12.60
2022-12-23T05:21:40.432Z,14.00
2022-12-23T05:24:08.732Z,14.90
2022-12-23T05:26:36.867Z,14.00
2022-12-23T05:29:06.237Z,14.30
2022-12-23T05:31:34.416Z,14.50
2022-12-23T05:34:06.560Z,14.80
2022-12-23T05:36:35.156Z,16.80
2022-12-23T05:39:03.322Z,17.20
2022-12-23T05:41:31.601Z,17.50
2022-12-23T05:43:59.894Z,18.00
2022-12-23T05:46:28.364Z,17.70
2022-12-23T05:48:56.660Z,17.80
2022-12-23T05:51:24.919Z,18.10
2022-12-23T05:53:53.142Z,16.90
2022-12-23T05:56:21.430Z,16.50
2022-12-23T05:58:49.567Z,16.20
2022-12-23T06:01:17.773Z,15.50
2022-12-23T06:03:46.058Z,16.20
2022-12-23T06:06:14.444Z,15.60
2022-12-23T06:08:43.165Z,14.50
2022-12-23T06:11:12.903Z,14.70
2022-12-23T06:13:41.042Z,15.20
2022-12-23T06:16:09.391Z,16.90
2022-12-23T06:18:37.655Z,15.40
2022-12-23T06:21:06.021Z,17.40
2022-12-23T06:23:34.680Z,17.50
2022-12-23T06:26:03.309Z,18.60
2022-12-23T06:28:32.641Z,17.20
2022-12-23T06:31:00.772Z,17.20
2022-12-23T06:33:28.874Z,18.30
2022-12-23T06:35:57.090Z,15.90
2022-12-23T06:38:25.211Z,16.90
2022-12-23T06:40:53.328Z,15.90
2022-12-23T06:43:21.553Z,17.70
2022-12-23T06:45:49.799Z,16.10
2022-12-23T06:48:18.158Z,19.10
2022-12-23T06:50:46.901Z,16.80
2022-12-23T06:53:15.901Z,16.60
2022-12-23T06:55:44.052Z,16.20
2022-12-23T06:58:12.317Z,15.60
2022-12-23T07:00:40.417Z,15.10
2022-12-23T07:03:08.879Z,16.00
2022-12-23T07:05:40.547Z,16.00
2022-12-23T07:08:08.754Z,16.30
2022-12-23T07:10:36.974Z,16.00
2022-12-23T07:13:05.300Z,15.20
2022-12-23T07:15:33.617Z,15.30
2022-12-23T07:18:01.861Z,14.10
2022-12-23T07:20:30.162Z,15.00
2022-12-23T07:22:58.757Z,14.40
2022-12-23T07:25:27.103Z,15.00
2022-12-23T07:27:55.654Z,15.20
2022-12-23T07:30:24.534Z,14.70
2022-12-23T07:32:53.495Z,15.20
2022-12-23T07:35:21.763Z,13.20
2022-12-23T07:37:55.218Z,14.00
2022-12-23T07:40:24.219Z,14.00
2022-12-23T07:42:58.633Z,13.80
2022-12-23T07:45:28.585Z,14.50
2022-12-23T07:47:59.103Z,12.60
2022-12-23T07:50:27.883Z,17.20
2022-12-23T07:52:57.333Z,18.10
2022-12-23T07:55:25.640Z,17.00
2022-12-23T07:57:53.934Z,16.40
2022-12-23T08:00:22.627Z,17.70
2022-12-23T08:02:50.798Z,18.20
2022-12-23T08:05:19.631Z,17.70
2022-12-23T08:07:50.200Z,17.90
2022-12-23T08:10:18.531Z,16.50
2022-12-23T08:12:46.689Z,18.50
2022-12-23T08:15:14.868Z,16.40
2022-12-23T08:17:43.257Z,18.00
2022-12-23T08:20:11.709Z,17.40
2022-12-23T08:22:39.933Z,18.60
2022-12-23T08:25:08.523Z,17.10
2022-12-23T08:27:36.718Z,16.10
2022-12-23T08:30:05.547Z,16.90
2022-12-23T08:32:33.724Z,16.60
2022-12-23T08:35:02.051Z,15.70
2022-12-23T08:37:30.279Z,17.50
2022-12-23T08:39:58.447Z,18.40
2022-12-23T08:42:26.627Z,19.60
2022-12-23T08:44:54.859Z,17.20
2022-12-23T08:47:23.367Z,19.50
2022-12-23T08:49:51.674Z,19.40
2022-12-23T08:52:19.817Z,20.30
2022-12-23T08:54:48.040Z,17.40
2022-12-23T08:57:16.293Z,17.70
2022-12-23T08:59:44.538Z,17.40
2022-12-23T09:02:12.920Z,18.10
2022-12-23T09:04:41.212Z,17.80
2022-12-23T09:07:09.470Z,16.80
2022-12-23T09:09:38.284Z,18.10
2022-12-23T09:12:07.267Z,16.70
2022-12-23T09:14:35.491Z,16.30
2022-12-23T09:17:03.652Z,18.10
2022-12-23T09:19:32.017Z,21.00
2022-12-23T09:22:00.156Z,18.70
2022-12-23T09:24:28.400Z,17.50
2022-12-23T09:26:56.688Z,19.90
2022-12-23T09:29:24.888Z,19.00
2022-12-23T09:31:53.129Z,18.30
2022-12-23T09:34:21.340Z,17.70
2022-12-23T09:36:55.082Z,18.90
2022-12-23T09:39:24.444Z,18.50
2022-12-23T09:42:02.470Z,19.20
2022-12-23T09:44:45.814Z,18.30
2022-12-23T09:47:19.458Z,20.60
2022-12-23T09:49:59.255Z,19.70
2022-12-23T09:52:49.923Z,17.00
2022-12-23T09:55:19.700Z,23.00
2022-12-23T09:58:07.187Z,23.00
2022-12-23T10:00:42.899Z,21.80
2022-12-23T10:03:26.269Z,19.30
2022-12-23T10:06:01.584Z,20.80
2022-12-23T10:08:45.115Z,19.30
2022-12-23T10:11:18.827Z,18.40
2022-12-23T10:14:03.309Z,20.20
2022-12-23T10:16:44.977Z,21.50
2022-12-23T10:19:29.231Z,16.90
2022-12-23T10:22:06.411Z,17.60
2022-12-23T10:24:40.977Z,18.00
2022-12-23T10:27:41.179Z,18.80
2022-12-23T10:30:53.507Z,19.60
2022-12-23T10:33:22.146Z,16.40
2022-12-23T10:36:10.840Z,18.40
2022-12-23T10:39:00.944Z,18.80
2022-12-23T10:41:50.693Z,19.80
2022-12-23T10:44:42.609Z,22.40
2022-12-23T10:47:40.968Z,19.60
2022-12-23T10:50:50.368Z,20.40
2022-12-23T10:53:36.850Z,17.10
2022-12-23T10:56:06.564Z,18.30
2022-12-23T10:58:38.663Z,18.60
2022-12-23T11:01:14.992Z,19.50
2022-12-23T11:03:55.984Z,19.80
2022-12-23T11:06:33.127Z,18.30
2022-12-23T11:09:06.795Z,19.70
2022-12-23T11:11:53.232Z,18.70
2022-12-23T11:14:33.504Z,17.90
2022-12-23T11:17:02.444Z,19.10
2022-12-23T11:19:39.110Z,19.70
2022-12-23T11:22:24.840Z,19.50
2022-12-23T11:24:53.133Z,18.60
2022-12-23T11:27:21.341Z,22.10
2022-12-23T11:29:53.730Z,21.50
2022-12-23T11:32:27.722Z,21.50
2022-12-23T11:34:56.566Z,21.80
2022-12-23T11:37:32.438Z,23.70
2022-12-23T11:40:00.901Z,21.50
2022-12-23T11:42:30.885Z,19.70
2022-12-23T11:45:00.872Z,20.00
2022-12-23T11:47:32.191Z,20.50
2022-12-23T11:50:03.262Z,20.50
2022-12-23T11:52:33.574Z,21.50
2022-12-23T11:55:04.990Z,21.50
2022-12-23T11:57:43.996Z,21.30
2022-12-23T12:00:21.488Z,23.50
2022-12-23T12:02:53.366Z,24.00
2022-12-23T12:05:37.667Z,21.40
2022-12-23T12:08:15.000Z,25.10
2022-12-23T12:10:43.481Z,23.50
2022-12-23T12:13:29.870Z,22.10
2022-12-23T12:16:22.312Z,21.50
2022-12-23T12:18:55.461Z,24.00
2022-12-23T12:21:30.447Z,23.40
2022-12-23T12:24:18.818Z,29.20
2022-12-23T12:26:52.872Z,27.70
2022-12-23T12:29:28.780Z,25.40
2022-12-23T12:31:59.672Z,23.60
2022-12-23T12:34:41.780Z,24.90
2022-12-23T12:37:27.502Z,24.10
2022-12-23T12:40:04.093Z,24.00
2022-12-23T12:42:40.922Z,23.80
2022-12-23T12:45:22.264Z,23.00
2022-12-23T12:48:28.146Z,21.20
2022-12-23T12:51:11.627Z,21.90
2022-12-23T12:54:06.633Z,22.40
2022-12-23T12:56:48.762Z,23.00
2022-12-23T12:59:19.805Z,23.80
2022-12-23T13:02:06.859Z,24.10
2022-12-23T13:04:37.936Z,24.40
2022-12-23T13:07:15.071Z,23.30
2022-12-23T13:09:59.036Z,24.30
2022-12-23T13:12:30.740Z,24.60
2022-12-23T13:15:12.302Z,25.50
2022-12-23T13:18:01.782Z,25.80
2022-12-23T13:20:44.896Z,26.10
2022-12-23T13:23:42.792Z,24.80
2022-12-23T13:26:45.965Z,26.00
2022-12-23T13:29:53.078Z,25.20
2022-12-23T13:32:33.388Z,26.80
2022-12-23T13:35:17.376Z,26.50
2022-12-23T13:37:55.088Z,26.70
2022-12-23T13:40:26.141Z,28.90
2022-12-23T13:42:58.712Z,26.10
2022-12-23T13:45:34.788Z,31.60
2022-12-23T13:48:15.211Z,27.80
2022-12-23T13:51:02.105Z,28.40
2022-12-23T13:53:42.159Z,32.50
2022-12-23T13:56:24.174Z,32.30
2022-12-23T13:58:53.054Z,33.40
2022-12-23T14:01:32.683Z,34.20
2022-12-23T14:04:29.980Z,35.90
2022-12-23T14:07:21.894Z,33.60
2022-12-23T14:09:59.250Z,35.30
2022-12-23T14:12:37.754Z,33.10
2022-12-23T14:15:43.534Z,39.50
2022-12-23T14:18:36.937Z,34.40
2022-12-23T14:21:14.727Z,34.00
2022-12-23T14:24:30.395Z,34.10
2022-12-23T14:27:35.724Z,38.70
2022-12-23T14:30:18.020Z,51.10
2022-12-23T14:32:57.460Z,41.10
2022-12-23T14:35:35.421Z,34.70
2022-12-23T14:38:08.289Z,38.00
2022-12-23T14:40:39.543Z,36.40
2022-12-23T14:43:43.265Z,37.90
2022-12-23T14:46:35.991Z,30.50
2022-12-23T14:49:38.082Z,29.90
2022-12-23T14:52:40.910Z,32.00
2022-12-23T14:55:42.482Z,32.40
2022-12-23T14:58:21.684Z,30.30
2022-12-23T15:00:55.113Z,32.40
2022-12-23T15:03:24.315Z,30.20
2022-12-23T15:05:54.466Z,31.70
2022-12-23T15:08:33.553Z,30.00
2022-12-23T15:11:03.754Z,29.10
2022-12-23T15:13:33.229Z,31.70
2022-12-23T15:16:02.513Z,39.90
2022-12-23T15:18:30.760Z,50.70
2022-12-23T15:21:05.003Z,36.70
2022-12-23T15:23:34.035Z,38.00
2022-12-23T15:26:02.857Z,38.60
2022-12-23T15:28:42.083Z,37.10
2022-12-23T15:31:26.471Z,34.90
2022-12-23T15:34:06.167Z,32.70
2022-12-23T15:36:37.062Z,32.50
2022-12-23T15:39:14.265Z,34.20
2022-12-23T15:41:47.453Z,32.90
2022-12-23T15:44:21.832Z,31.70
2022-12-23T15:46:50.797Z,32.20
2022-12-23T15:49:22.085Z,30.50
2022-12-23T15:52:16.548Z,30.10
2022-12-23T15:55:10.155Z,34.30
2022-12-23T15:57:49.824Z,33.80
2022-12-23T16:00:18.975Z,34.50
2022-12-23T16:03:00.449Z,32.70
2022-12-23T16:05:33.032Z,29.50
2022-12-23T16:08:16.620Z,33.90
2022-12-23T16:11:13.885Z,32.10
2022-12-23T16:14:01.447Z,30.70
2022-12-23T16:16:32.759Z,30.70
2022-12-23T16:19:01.263Z,33.50
2022-12-23T16:21:33.234Z,32.80
2022-12-23T16:24:07.944Z,33.50
2022-12-23T16:26:42.592Z,31.80
2022-12-23T16:29:12.008Z,30.80
2022-12-23T16:31:45.705Z,32.20
2022-12-23T16:34:19.522Z,30.50
2022-12-23T16:36:47.998Z,32.80
2022-12-23T16:39:16.893Z,33.40
2022-12-23T16:41:45.210Z,31.80
2022-12-23T16:44:13.448Z,31.60
2022-12-23T16:46:47.461Z,32.70
2022-12-23T16:49:19.678Z,34.20
2022-12-23T16:51:48.461Z,35.20
2022-12-23T16:54:19.848Z,37.90
2022-12-23T16:56:48.495Z,30.60
2022-12-23T16:59:16.820Z,30.30
2022-12-23T17:01:48.423Z,34.70
2022-12-23T17:04:16.866Z,31.90
2022-12-23T17:06:46.670Z,31.40
2022-12-23T17:09:15.939Z,27.60
2022-12-23T17:11:47.804Z,28.10
2022-12-23T17:14:24.645Z,26.80
2022-12-23T17:16:53.298Z,24.70
2022-12-23T17:19:27.875Z,27.00
2022-12-23T17:22:02.187Z,24.60
2022-12-23T17:24:30.927Z,21.80
2022-12-23T17:26:59.192Z,23.80
2022-12-23T17:29:28.413Z,24.90
2022-12-23T17:31:56.794Z,25.80
2022-12-23T17:34:25.356Z,24.10
2022-12-23T17:36:54.111Z,26.40
2022-12-23T17:39:22.714Z,27.50
2022-12-23T17:41:51.175Z,28.80
2022-12-23T17:44:19.715Z,27.50
2022-12-23T17:46:48.145Z,25.70
2022-12-23T17:49:16.346Z,29.70
2022-12-23T17:51:44.580Z,30.20
2022-12-23T17:54:23.344Z,33.30
2022-12-23T17:56:51.889Z,36.10
2022-12-23T17:59:21.880Z,39.10
2022-12-23T18:01:50.558Z,38.60
2022-12-23T18:04:19.011Z,43.20
2022-12-23T18:06:47.386Z,84.60
2022-12-23T18:09:16.865Z,70.50
2022-12-23T18:11:46.860Z,77.30
2022-12-23T18:14:19.978Z,44.80
2022-12-23T18:16:48.296Z,41.80
2022-12-23T18:19:18.587Z,36.40
2022-12-23T18:21:47.883Z,44.80
2022-12-23T18:24:16.888Z,60.60
2022-12-23T18:26:45.774Z,53.20
2022-12-23T18:29:14.009Z,37.80
2022-12-23T18:31:51.249Z,37.00
2022-12-23T18:34:21.060Z,33.50
2022-12-23T18:36:51.940Z,30.10
2022-12-23T18:39:21.252Z,31.30
2022-12-23T18:41:49.618Z,30.50
2022-12-23T18:44:20.702Z,25.80
2022-12-23T18:46:50.260Z,24.70
2022-12-23T18:49:18.729Z,24.20
2022-12-23T18:51:47.097Z,23.60
2022-12-23T18:54:15.985Z,25.00
2022-12-23T18:56:44.802Z,23.20
2022-12-23T18:59:21.388Z,23.40
2022-12-23T19:01:56.651Z,22.40
2022-12-23T19:04:26.023Z,22.10
2022-12-23T19:06:55.524Z,21.00
2022-12-23T19:09:25.252Z,22.90
2022-12-23T19:11:54.351Z,21.70
2022-12-23T19:14:22.676Z,21.70
2022-12-23T19:16:52.330Z,23.00
2022-12-23T19:19:21.931Z,23.50
2022-12-23T19:21:50.199Z,22.90
2022-12-23T19:24:18.794Z,23.00
2022-12-23T19:26:47.134Z,23.00
2022-12-23T19:29:15.344Z,22.40
2022-12-23T19:31:43.581Z,22.20
2022-12-23T19:34:15.361Z,22.40
2022-12-23T19:36:44.419Z,23.50
2022-12-23T19:39:16.780Z,22.30
2022-12-23T19:41:45.785Z,22.60
2022-12-23T19:44:14.882Z,22.10
2022-12-23T19:46:43.434Z,22.70
2022-12-23T19:49:19.317Z,23.50
2022-12-23T19:51:48.844Z,24.60
2022-12-23T19:54:17.947Z,24.40
2022-12-23T19:56:46.234Z,23.00
2022-12-23T19:59:14.528Z,22.20
2022-12-23T20:01:43.472Z,20.50
2022-12-23T20:04:12.823Z,20.60
2022-12-23T20:06:42.331Z,21.10
2022-12-23T20:09:12.757Z,19.90
2022-12-23T20:11:46.844Z,20.10
2022-12-23T20:14:18.144Z,19.20
2022-12-23T20:16:48.451Z,21.60
2022-12-23T20:19:17.873Z,22.10
2022-12-23T20:21:46.052Z,22.10
2022-12-23T20:24:16.010Z,21.90
2022-12-23T20:26:44.900Z,30.30
2022-12-23T20:29:13.154Z,26.30
2022-12-23T20:31:41.957Z,25.60
2022-12-23T20:34:14.987Z,24.10
2022-12-23T20:36:43.609Z,20.80
2022-12-23T20:39:11.933Z,20.20
2022-12-23T20:41:40.237Z,18.30
2022-12-23T20:44:33.876Z,17.50
2022-12-23T20:46:56.753Z,19.50
2022-12-23T20:49:25.047Z,17.10
2022-12-23T20:51:53.339Z,17.40
2022-12-23T20:54:26.299Z,15.90
2022-12-23T20:56:58.088Z,15.80
2022-12-23T20:59:26.300Z,15.60
2022-12-23T21:01:55.065Z,15.80
2022-12-23T21:04:23.650Z,15.50
2022-12-23T21:06:51.875Z,12.90
2022-12-23T21:09:20.372Z,12.20
2022-12-23T21:11:49.353Z,13.00
2022-12-23T21:14:17.510Z,13.30
2022-12-23T21:16:45.959Z,13.20
2022-12-23T21:19:22.431Z,14.10
2022-12-23T21:21:52.166Z,15.80
2022-12-23T21:24:21.252Z,16.70
2022-12-23T21:26:56.394Z,15.90
2022-12-23T21:29:26.207Z,17.90
2022-12-23T21:31:55.399Z,18.30
2022-12-23T21:34:24.049Z,18.50
2022-12-23T21:36:52.518Z,18.40
2022-12-23T21:39:21.238Z,18.20
2022-12-23T21:41:51.573Z,17.50
2022-12-23T21:44:20.039Z,17.40
2022-12-23T21:46:50.141Z,16.30
2022-12-23T21:49:19.549Z,17.80
2022-12-23T21:51:48.190Z,18.70
2022-12-23T21:54:16.761Z,17.40
2022-12-23T21:56:44.991Z,17.80
2022-12-23T21:59:15.011Z,18.30
2022-12-23T22:01:44.515Z,17.60
2022-12-23T22:04:13.114Z,17.20
2022-12-23T22:06:44.092Z,17.20
2022-12-23T22:09:16.611Z,19.50
2022-12-23T22:11:45.645Z,18.80
2022-12-23T22:14:17.223Z,20.90
2022-12-23T22:16:45.792Z,20.10
2022-12-23T22:19:14.795Z,22.90
2022-12-23T22:21:43.148Z,19.00
2022-12-23T22:24:11.735Z,19.70
2022-12-23T22:26:40.070Z,20.60
2022-12-23T22:29:08.476Z,19.90
2022-12-23T22:31:53.352Z,20.10
2022-12-23T22:34:23.215Z,24.30
2022-12-23T22:36:51.519Z,23.10
2022-12-23T22:39:21.713Z,23.40
2022-12-23T22:41:51.961Z,22.10
2022-12-23T22:44:22.537Z,24.20
2022-12-23T22:46:51.043Z,22.90
2022-12-23T22:49:19.465Z,23.40
2022-12-23T22:51:47.742Z,23.60
2022-12-23T22:54:15.944Z,24.90
2022-12-23T22:56:46.056Z,25.00
2022-12-23T22:59:23.876Z,24.00
2022-12-23T23:01:54.236Z,23.40
2022-12-23T23:04:22.985Z,23.30
2022-12-23T23:06:51.608Z,21.90
2022-12-23T23:09:21.859Z,20.90
2022-12-23T23:11:50.874Z,22.20
2022-12-23T23:14:19.506Z,20.70
2022-12-23T23:16:48.023Z,21.70
2022-12-23T23:19:20.372Z,21.00
2022-12-23T23:21:49.003Z,21.50
2022-12-23T23:24:17.719Z,20.70
2022-12-23T23:26:45.913Z,19.10
2022-12-23T23:29:14.616Z,19.10
2022-12-23T23:31:44.201Z,19.60
2022-12-23T23:34:13.857Z,17.40
2022-12-23T23:36:42.415Z,18.20
2022-12-23T23:39:14.288Z,18.50
2022-12-23T23:41:43.214Z,17.90
2022-12-23T23:44:12.574Z,16.70
2022-12-23T23:46:41.267Z,16.60
2022-12-23T23:49:10.132Z,16.10
2022-12-23T23:51:39.910Z,16.10
2022-12-23T23:54:09.213Z,15.80
2022-12-23T23:56:39.121Z,16.50
2022-12-23T23:59:09.713Z,16.20
